createdAt,value
2023-03-08T00:01:26.357Z,80.30
2023-03-08T00:03:56.344Z,80.30
2023-03-08T00:08:57.780Z,80.10
2023-03-08T00:13:56.700Z,80.40
2023-03-08T00:23:54.746Z,80.30
2023-03-08T00:28:53.355Z,80.30
2023-03-08T00:31:22.180Z,80.30
2023-03-08T00:33:55.194Z,80.30
2023-03-08T00:36:24.032Z,80.20
2023-03-08T00:38:52.545Z,80.30
2023-03-08T00:43:49.831Z,80.40
2023-03-08T00:46:19.507Z,80.30
2023-03-08T00:51:19.867Z,80.30
2023-03-08T00:56:17.318Z,80.40
2023-03-08T00:58:46.540Z,80.50
2023-03-08T01:01:18.070Z,80.60
2023-03-08T01:03:50.185Z,80.50
2023-03-08T01:06:18.808Z,80.50
2023-03-08T01:11:21.700Z,80.40
2023-03-08T01:13:51.491Z,80.40
2023-03-08T01:16:22.260Z,80.40
2023-03-08T01:18:52.652Z,80.30
2023-03-08T01:21:22.379Z,80.30
2023-03-08T01:26:22.376Z,80.20
2023-03-08T01:31:21.906Z,80.20
2023-03-08T01:33:52.103Z,80.10
2023-03-08T01:36:23.854Z,80.00
2023-03-08T01:41:24.005Z,79.80
2023-03-08T01:43:53.586Z,79.90
2023-03-08T01:46:28.630Z,79.90
2023-03-08T01:49:24.185Z,79.80
2023-03-08T01:54:32.071Z,79.80
2023-03-08T01:57:04.956Z,79.80
2023-03-08T01:59:35.742Z,79.80
2023-03-08T02:02:04.720Z,79.80
2023-03-08T02:04:36.865Z,79.80
2023-03-08T02:07:09.012Z,80.00
2023-03-08T02:09:37.590Z,79.90
2023-03-08T02:12:12.099Z,80.00
2023-03-08T02:14:42.172Z,80.10
2023-03-08T02:19:48.462Z,80.40
2023-03-08T02:22:18.187Z,80.50
2023-03-08T02:24:49.125Z,80.70
2023-03-08T02:27:22.731Z,80.90
2023-03-08T02:32:20.113Z,81.10
2023-03-08T02:39:49.434Z,81.30
2023-03-08T02:42:17.732Z,81.40
2023-03-08T02:44:45.943Z,81.40
2023-03-08T02:57:10.343Z,81.50
2023-03-08T03:04:37.262Z,81.30
2023-03-08T03:07:08.022Z,81.30
2023-03-08T03:09:37.619Z,81.20
2023-03-08T03:14:40.090Z,81.20
2023-03-08T03:17:08.492Z,81.20
2023-03-08T03:24:37.527Z,81.00
2023-03-08T03:27:07.656Z,81.00
2023-03-08T03:29:40.050Z,80.90
2023-03-08T03:32:14.280Z,80.90
2023-03-08T03:44:51.741Z,80.80
2023-03-08T03:52:25.441Z,80.90
2023-03-08T03:54:59.854Z,81.10
2023-03-08T03:59:59.334Z,81.20
2023-03-08T04:15:02.754Z,81.10
2023-03-08T04:22:34.494Z,81.20
2023-03-08T04:25:10.603Z,81.20
2023-03-08T04:30:16.266Z,81.50
2023-03-08T04:32:45.331Z,81.50
2023-03-08T04:37:47.079Z,81.50
2023-03-08T04:45:31.824Z,81.70
2023-03-08T04:53:03.492Z,81.80
2023-03-08T04:55:31.773Z,81.80
2023-03-08T05:00:32.939Z,81.90
2023-03-08T05:03:01.346Z,81.90
2023-03-08T05:13:01.836Z,82.30
2023-03-08T05:20:29.117Z,82.10
2023-03-08T05:30:46.504Z,82.10
2023-03-08T05:38:13.476Z,82.20
2023-03-08T05:48:11.269Z,82.80
2023-03-08T05:50:40.467Z,82.80
2023-03-08T06:00:36.069Z,83.10
2023-03-08T06:03:04.617Z,83.20
2023-03-08T06:05:37.899Z,83.20
2023-03-08T06:08:06.769Z,83.30
2023-03-08T06:20:31.580Z,83.50
2023-03-08T06:23:01.331Z,83.60
2023-03-08T06:25:29.523Z,83.60
2023-03-08T06:27:57.687Z,83.80
2023-03-08T06:38:06.024Z,84.00
2023-03-08T06:45:34.768Z,84.40
2023-03-08T06:50:31.953Z,84.50
2023-03-08T06:53:00.468Z,84.60
2023-03-08T06:55:50.626Z,84.70
2023-03-08T06:58:19.138Z,84.60
2023-03-08T07:10:41.477Z,84.80
2023-03-08T07:13:11.110Z,84.70
2023-03-08T07:15:41.448Z,84.70
2023-03-08T07:25:35.285Z,86.30
2023-03-08T07:30:33.494Z,89.30
2023-03-08T07:42:57.553Z,97.50
2023-03-08T07:45:33.181Z,98.90
2023-03-08T07:53:01.051Z,99.90
2023-03-08T07:55:29.708Z,99.90
2023-03-08T08:00:27.524Z,99.90
2023-03-08T08:02:57.541Z,99.90
2023-03-08T08:12:51.707Z,99.90
2023-03-08T08:20:19.592Z,99.90
2023-03-08T08:22:47.804Z,99.90
2023-03-08T08:30:15.488Z,99.90
2023-03-08T08:32:43.832Z,99.90
2023-03-08T08:37:42.272Z,99.90
2023-03-08T08:40:12.969Z,99.90
2023-03-08T08:45:11.596Z,99.90
2023-03-08T08:47:39.899Z,99.90
2023-03-08T08:55:08.049Z,99.90
2023-03-08T09:00:08.166Z,99.90
2023-03-08T09:12:32.536Z,99.90
2023-03-08T09:15:00.838Z,99.90
2023-03-08T09:19:57.660Z,99.90
2023-03-08T09:22:26.521Z,99.90
2023-03-08T09:27:23.232Z,99.90
2023-03-08T09:29:52.964Z,99.90
2023-03-08T09:42:24.097Z,99.90
2023-03-08T09:45:18.182Z,99.90
2023-03-08T09:47:52.298Z,99.90
2023-03-08T09:50:38.835Z,99.90
2023-03-08T09:53:20.241Z,99.90
2023-03-08T09:55:52.506Z,99.90
2023-03-08T09:58:36.334Z,99.90
2023-03-08T10:01:22.610Z,99.90
2023-03-08T10:04:35.224Z,99.90
2023-03-08T10:07:22.373Z,99.90
2023-03-08T10:10:06.894Z,99.90
2023-03-08T10:12:53.116Z,99.90
2023-03-08T10:15:23.966Z,99.90
2023-03-08T10:17:58.498Z,99.90
2023-03-08T10:20:29.905Z,99.90
2023-03-08T10:23:01.013Z,99.90
2023-03-08T10:25:34.058Z,99.90
2023-03-08T10:28:05.370Z,99.90
2023-03-08T10:30:38.775Z,99.90
2023-03-08T10:33:12.768Z,99.90
2023-03-08T10:35:57.498Z,99.90
2023-03-08T10:38:30.258Z,99.90
2023-03-08T10:41:07.347Z,99.90
2023-03-08T10:43:42.458Z,99.90
2023-03-08T10:46:14.987Z,99.90
2023-03-08T10:48:44.659Z,99.90
2023-03-08T10:51:19.503Z,99.90
2023-03-08T10:53:55.832Z,99.90
2023-03-08T10:56:28.294Z,99.90
2023-03-08T10:58:58.309Z,99.90
2023-03-08T11:01:29.228Z,99.90
2023-03-08T11:04:03.802Z,99.90
2023-03-08T11:06:32.789Z,99.90
2023-03-08T11:09:03.633Z,99.90
2023-03-08T11:11:42.500Z,99.90
2023-03-08T11:14:12.711Z,99.90
2023-03-08T11:16:52.055Z,99.90
2023-03-08T11:19:40.053Z,99.90
2023-03-08T11:22:24.561Z,99.90
2023-03-08T11:25:21.821Z,99.90
2023-03-08T11:28:13.932Z,99.90
2023-03-08T11:30:56.723Z,99.90
2023-03-08T11:33:55.063Z,99.90
2023-03-08T11:36:31.315Z,99.90
2023-03-08T11:39:11.790Z,99.90
2023-03-08T11:41:49.376Z,99.90
2023-03-08T11:44:36.350Z,99.90
2023-03-08T11:47:44.992Z,99.90
2023-03-08T11:50:22.801Z,99.90
2023-03-08T11:53:18.034Z,99.90
2023-03-08T11:56:03.222Z,99.90
2023-03-08T11:58:40.104Z,99.90
2023-03-08T12:01:16.918Z,99.90
2023-03-08T12:03:48.486Z,99.90
2023-03-08T12:06:29.139Z,99.90
2023-03-08T12:09:07.888Z,99.90
2023-03-08T12:11:42.795Z,99.90
2023-03-08T12:14:18.080Z,99.90
2023-03-08T12:16:52.408Z,99.90
2023-03-08T12:19:34.064Z,99.90
2023-03-08T12:22:16.827Z,99.90
2023-03-08T12:24:53.777Z,99.90
2023-03-08T12:27:29.560Z,99.90
2023-03-08T12:30:05.460Z,99.90
2023-03-08T12:32:38.256Z,99.90
2023-03-08T12:35:24.951Z,99.90
2023-03-08T12:37:58.190Z,99.90
2023-03-08T12:40:40.752Z,99.90
2023-03-08T12:43:13.704Z,99.90
2023-03-08T12:45:45.109Z,99.90
2023-03-08T12:48:25.186Z,99.90
2023-03-08T12:51:03.552Z,99.90
2023-03-08T12:53:38.256Z,99.90
2023-03-08T12:56:20.995Z,99.90
2023-03-08T12:58:53.309Z,99.90
2023-03-08T13:01:36.224Z,99.90
2023-03-08T13:04:06.881Z,99.90
2023-03-08T13:07:25.738Z,99.90
2023-03-08T13:10:05.671Z,99.90
2023-03-08T13:12:51.940Z,99.90
2023-03-08T13:15:25.529Z,99.90
2023-03-08T13:18:06.102Z,99.90
2023-03-08T13:21:14.354Z,99.90
2023-03-08T13:23:50.128Z,99.90
2023-03-08T13:26:50.456Z,99.90
2023-03-08T13:29:22.250Z,99.90
2023-03-08T13:31:51.467Z,99.90
2023-03-08T13:34:28.907Z,99.90
2023-03-08T13:36:57.680Z,99.90
2023-03-08T13:39:30.057Z,99.90
2023-03-08T13:42:09.576Z,99.90
2023-03-08T13:44:39.698Z,99.90
2023-03-08T13:47:23.621Z,99.90
2023-03-08T13:49:54.638Z,99.90
2023-03-08T13:52:26.505Z,99.90
2023-03-08T13:54:57.311Z,99.90
2023-03-08T13:57:28.630Z,99.90
2023-03-08T14:00:01.420Z,99.90
2023-03-08T14:02:34.944Z,99.90
2023-03-08T14:05:03.956Z,99.90
2023-03-08T14:07:33.027Z,99.90
2023-03-08T14:12:32.786Z,99.90
2023-03-08T14:15:06.170Z,99.90
2023-03-08T14:17:37.118Z,99.90
2023-03-08T14:20:20.206Z,99.90
2023-03-08T14:22:50.533Z,99.90
2023-03-08T14:25:31.045Z,99.90
2023-03-08T14:30:32.345Z,99.90
2023-03-08T14:33:06.161Z,99.90
2023-03-08T14:35:38.372Z,99.90
2023-03-08T14:38:15.443Z,99.90
2023-03-08T14:40:50.463Z,99.90
2023-03-08T14:43:21.664Z,99.90
2023-03-08T14:45:57.529Z,99.90
2023-03-08T14:48:29.997Z,99.90
2023-03-08T14:51:01.687Z,99.90
2023-03-08T14:53:34.417Z,99.90
2023-03-08T14:56:06.706Z,99.90
2023-03-08T14:58:39.170Z,99.90
2023-03-08T15:01:08.875Z,99.90
2023-03-08T15:03:37.114Z,99.90
2023-03-08T15:06:13.623Z,99.90
2023-03-08T15:11:10.666Z,99.90
2023-03-08T15:13:38.947Z,99.90
2023-03-08T15:16:14.205Z,99.90
2023-03-08T15:21:15.701Z,99.90
2023-03-08T15:26:20.911Z,99.90
2023-03-08T15:31:19.262Z,99.90
2023-03-08T15:36:18.516Z,99.90
2023-03-08T15:41:17.822Z,99.90
2023-03-08T15:46:16.089Z,99.90
2023-03-08T15:48:46.030Z,99.90
2023-03-08T15:51:19.621Z,99.90
2023-03-08T15:58:46.099Z,99.90
2023-03-08T16:06:14.998Z,99.90
2023-03-08T16:11:14.011Z,99.90
2023-03-08T16:13:43.007Z,99.90
2023-03-08T16:16:15.551Z,99.90
2023-03-08T16:18:47.868Z,99.90
2023-03-08T16:21:18.027Z,99.90
2023-03-08T16:26:17.812Z,99.90
2023-03-08T16:28:47.837Z,99.90
2023-03-08T16:31:17.777Z,99.90
2023-03-08T16:38:44.850Z,99.90
2023-03-08T16:46:18.288Z,99.90
2023-03-08T16:51:19.829Z,99.90
2023-03-08T16:53:50.345Z,99.90
2023-03-08T16:56:20.365Z,99.90
2023-03-08T16:58:48.773Z,99.90
2023-03-08T17:01:19.461Z,99.90
2023-03-08T17:06:19.762Z,99.90
2023-03-08T17:08:50.205Z,99.90
2023-03-08T17:11:21.539Z,99.90
2023-03-08T17:13:51.212Z,99.90
2023-03-08T17:18:49.860Z,99.90
2023-03-08T17:23:49.813Z,99.90
2023-03-08T17:26:20.091Z,99.90
2023-03-08T17:28:50.406Z,99.90
2023-03-08T17:31:21.729Z,99.90
2023-03-08T17:33:50.656Z,99.90
2023-03-08T17:38:49.360Z,99.90
2023-03-08T17:46:17.865Z,99.90
2023-03-08T17:51:18.599Z,99.90
2023-03-08T17:53:49.156Z,99.90
2023-03-08T17:56:20.006Z,99.90
2023-03-08T18:01:20.161Z,99.90
2023-03-08T18:06:23.536Z,99.90
2023-03-08T18:08:53.498Z,99.90
2023-03-08T18:13:51.351Z,99.90
2023-03-08T18:21:19.153Z,99.90
2023-03-08T18:26:18.792Z,99.90
2023-03-08T18:28:47.572Z,99.90
2023-03-08T18:31:18.245Z,99.90
2023-03-08T18:36:15.248Z,99.90
2023-03-08T18:38:44.350Z,99.90
2023-03-08T18:41:15.084Z,99.90
2023-03-08T18:43:45.154Z,99.90
2023-03-08T18:46:15.183Z,99.90
2023-03-08T18:48:46.315Z,99.90
2023-03-08T19:01:15.187Z,99.90
2023-03-08T19:03:45.442Z,99.90
2023-03-08T19:06:15.355Z,99.90
2023-03-08T19:08:45.035Z,99.90
2023-03-08T19:11:15.873Z,99.90
2023-03-08T19:13:45.856Z,99.90
2023-03-08T19:16:20.524Z,99.90
2023-03-08T19:18:49.577Z,99.90
2023-03-08T19:21:19.738Z,99.90
2023-03-08T19:23:48.788Z,99.90
2023-03-08T19:26:38.246Z,99.90
2023-03-08T19:29:14.412Z,99.90
2023-03-08T19:31:44.842Z,99.90
2023-03-08T19:34:14.272Z,99.90
2023-03-08T19:36:44.079Z,99.90
2023-03-08T19:39:16.829Z,99.90
2023-03-08T19:44:18.768Z,99.90
2023-03-08T19:46:47.545Z,99.90
2023-03-08T19:49:18.353Z,99.90
2023-03-08T19:51:48.952Z,99.90
2023-03-08T20:01:45.175Z,99.90
2023-03-08T20:06:46.507Z,99.90
2023-03-08T20:09:21.264Z,99.90
2023-03-08T20:16:52.001Z,99.90
2023-03-08T20:19:20.518Z,99.90
2023-03-08T20:26:47.215Z,99.90
2023-03-08T20:34:14.882Z,99.90
2023-03-08T20:49:11.084Z,99.90
2023-03-08T20:51:40.802Z,99.90
2023-03-08T20:54:09.917Z,99.90
2023-03-08T20:59:06.654Z,99.90
2023-03-08T21:01:35.021Z,99.90
2023-03-08T21:04:03.358Z,99.90
2023-03-08T21:06:33.079Z,99.90
2023-03-08T21:09:02.816Z,99.90
2023-03-08T21:16:30.416Z,99.90
2023-03-08T21:19:01.358Z,99.90
2023-03-08T21:21:34.071Z,99.90
2023-03-08T21:24:06.607Z,99.90
2023-03-08T21:26:35.647Z,99.90
2023-03-08T21:29:06.181Z,99.90
2023-03-08T21:31:36.351Z,99.90
2023-03-08T21:34:06.559Z,99.90
2023-03-08T21:36:36.151Z,99.90
2023-03-08T21:39:07.791Z,99.90
2023-03-08T21:41:38.967Z,99.90
2023-03-08T21:44:12.271Z,99.90
2023-03-08T21:46:41.802Z,99.90
2023-03-08T21:49:17.660Z,99.90
2023-03-08T21:54:16.736Z,99.90
2023-03-08T21:56:45.154Z,99.90
2023-03-08T22:11:41.654Z,99.90
2023-03-08T22:14:09.949Z,99.90
2023-03-08T22:16:40.886Z,99.90
2023-03-08T22:24:08.060Z,99.90
2023-03-08T22:26:36.293Z,99.90
2023-03-08T22:29:05.885Z,99.90
2023-03-08T22:34:02.762Z,99.90
2023-03-08T22:38:59.595Z,99.90
2023-03-08T22:41:29.336Z,99.90
2023-03-08T22:43:57.863Z,99.90
2023-03-08T22:46:28.913Z,99.90
2023-03-08T22:48:59.257Z,99.90
2023-03-08T22:51:28.622Z,99.90
2023-03-08T22:53:59.034Z,99.90
2023-03-08T22:56:30.543Z,99.90
2023-03-08T22:58:59.289Z,99.90
2023-03-08T23:01:30.910Z,99.90
2023-03-08T23:04:01.357Z,99.90
2023-03-08T23:06:31.782Z,99.90
2023-03-08T23:09:04.426Z,99.90
2023-03-08T23:14:03.010Z,99.90
2023-03-08T23:16:33.378Z,99.90
2023-03-08T23:21:33.485Z,99.90
2023-03-08T23:26:32.500Z,99.90
2023-03-08T23:29:03.295Z,99.90
2023-03-08T23:31:35.765Z,99.90
2023-03-08T23:34:05.798Z,99.90
2023-03-08T23:36:35.188Z,99.90
2023-03-08T23:44:03.859Z,99.90
2023-03-08T23:46:33.839Z,99.90
2023-03-08T23:49:02.812Z,99.90
2023-03-08T23:51:34.044Z,99.90
2023-03-08T23:54:03.540Z,99.90
2023-03-08T23:56:37.834Z,99.90
2023-03-08T23:59:10.598Z,99.90
